createdAt,value
2023-01-07T00:00:24.353Z,0.02
2023-01-07T00:01:23.555Z,0.02
2023-01-07T00:02:24.761Z,0.02
2023-01-07T00:03:24.045Z,0.02
2023-01-07T00:04:24.241Z,0.01
2023-01-07T00:05:23.418Z,0.00
2023-01-07T00:06:23.647Z,0.02
2023-01-07T00:07:24.837Z,0.02
2023-01-07T00:08:25.056Z,0.02
2023-01-07T00:10:23.567Z,0.02
2023-01-07T00:11:24.755Z,0.01
2023-01-07T00:12:24.005Z,0.00
2023-01-07T00:13:24.264Z,0.02
2023-01-07T00:14:23.440Z,0.02
2023-01-07T00:15:23.739Z,0.02
2023-01-07T00:16:23.948Z,0.00
2023-01-07T00:17:24.140Z,0.02
2023-01-07T00:18:23.312Z,0.02
2023-01-07T00:19:23.546Z,0.05
2023-01-07T00:20:23.803Z,0.02
2023-01-07T00:21:24.066Z,0.02
2023-01-07T00:22:23.257Z,0.02
2023-01-07T00:23:23.506Z,0.02
2023-01-07T00:24:24.711Z,0.01
2023-01-07T00:25:24.952Z,0.02
2023-01-07T00:26:23.266Z,0.00
2023-01-07T00:27:24.380Z,0.00
2023-01-07T00:28:24.621Z,0.00
2023-01-07T00:29:24.820Z,0.00
2023-01-07T00:30:24.096Z,0.02
2023-01-07T00:31:23.351Z,0.00
2023-01-07T00:32:23.501Z,0.02
2023-01-07T00:33:23.733Z,0.00
2023-01-07T00:34:24.042Z,0.01
2023-01-07T00:35:23.136Z,0.00
2023-01-07T00:36:23.489Z,0.02
2023-01-07T00:37:24.547Z,0.02
2023-01-07T00:38:24.770Z,0.02
2023-01-07T00:39:27.074Z,0.02
2023-01-07T00:40:23.207Z,0.02
2023-01-07T00:41:24.376Z,0.00
2023-01-07T00:42:23.691Z,0.02
2023-01-07T00:43:25.086Z,0.02
2023-01-07T00:44:23.086Z,0.02
2023-01-07T00:45:23.317Z,0.00
2023-01-07T00:46:23.599Z,0.02
2023-01-07T00:47:23.785Z,0.02
2023-01-07T00:48:22.972Z,0.02
2023-01-07T00:49:23.188Z,0.02
2023-01-07T00:50:24.404Z,0.07
2023-01-07T00:51:24.602Z,0.02
2023-01-07T00:52:23.845Z,0.02
2023-01-07T00:53:23.134Z,0.02
2023-01-07T00:54:23.337Z,0.02
2023-01-07T00:55:24.541Z,0.00
2023-01-07T00:56:23.734Z,0.02
2023-01-07T00:57:23.951Z,0.02
2023-01-07T00:58:23.275Z,0.00
2023-01-07T00:59:23.490Z,0.02
2023-01-07T01:00:23.621Z,0.02
2023-01-07T01:01:24.013Z,0.02
2023-01-07T01:02:24.136Z,0.02
2023-01-07T01:03:23.471Z,0.02
2023-01-07T01:04:23.665Z,0.02
2023-01-07T01:05:22.847Z,0.02
2023-01-07T01:06:24.057Z,0.02
2023-01-07T01:07:23.357Z,0.00
2023-01-07T01:08:22.585Z,0.02
2023-01-07T01:09:23.625Z,0.02
2023-01-07T01:10:23.054Z,0.02
2023-01-07T01:11:23.288Z,0.02
2023-01-07T01:12:23.531Z,0.02
2023-01-07T01:13:23.681Z,0.02
2023-01-07T01:14:22.991Z,0.02
2023-01-07T01:15:23.202Z,0.02
2023-01-07T01:16:23.672Z,0.02
2023-01-07T01:17:22.652Z,0.02
2023-01-07T01:18:23.836Z,0.02
2023-01-07T01:19:24.101Z,0.02
2023-01-07T01:20:23.454Z,0.02
2023-01-07T01:21:22.598Z,0.00
2023-01-07T01:22:23.781Z,0.02
2023-01-07T01:23:24.020Z,0.02
2023-01-07T01:24:24.269Z,0.02
2023-01-07T01:25:22.512Z,0.00
2023-01-07T01:26:22.830Z,0.01
2023-01-07T01:27:23.027Z,0.07
2023-01-07T01:28:23.301Z,0.00
2023-01-07T01:29:22.500Z,0.02
2023-01-07T01:30:22.736Z,0.02
2023-01-07T01:31:23.093Z,0.02
2023-01-07T01:32:23.211Z,0.02
2023-01-07T01:33:23.383Z,0.02
2023-01-07T01:34:22.671Z,0.00
2023-01-07T01:35:22.902Z,0.02
2023-01-07T01:36:24.126Z,0.02
2023-01-07T01:37:22.385Z,0.02
2023-01-07T01:38:22.595Z,0.02
2023-01-07T01:39:22.852Z,0.02
2023-01-07T01:40:24.035Z,0.00
2023-01-07T01:41:22.296Z,0.02
2023-01-07T01:42:22.556Z,0.02
2023-01-07T01:43:22.781Z,0.02
2023-01-07T01:44:23.973Z,0.01
2023-01-07T01:45:22.226Z,0.00
2023-01-07T01:46:22.530Z,0.02
2023-01-07T01:47:22.709Z,0.02
2023-01-07T01:48:22.969Z,0.02
2023-01-07T01:49:23.181Z,0.02
2023-01-07T01:50:22.350Z,0.01
2023-01-07T01:51:22.596Z,0.00
2023-01-07T01:52:22.849Z,0.02
2023-01-07T01:53:23.023Z,0.02
2023-01-07T01:54:22.390Z,0.00
2023-01-07T01:55:23.535Z,0.00
2023-01-07T01:56:22.897Z,0.02
2023-01-07T01:57:22.010Z,0.02
2023-01-07T01:58:22.261Z,0.02
2023-01-07T01:59:22.497Z,0.01
2023-01-07T02:00:22.762Z,0.00
2023-01-07T02:01:23.016Z,0.02
2023-01-07T02:02:22.242Z,0.02
2023-01-07T02:03:22.463Z,0.02
2023-01-07T02:04:22.674Z,0.00
2023-01-07T02:05:22.979Z,0.00
2023-01-07T02:06:22.111Z,0.02
2023-01-07T02:07:22.346Z,0.00
2023-01-07T02:08:22.593Z,0.02
2023-01-07T02:09:21.828Z,0.02
2023-01-07T02:10:22.085Z,0.02
2023-01-07T02:11:22.455Z,0.02
2023-01-07T02:12:22.592Z,0.02
2023-01-07T02:13:21.780Z,0.01
2023-01-07T02:14:22.191Z,0.02
2023-01-07T02:15:22.232Z,0.00
2023-01-07T02:16:22.546Z,0.02
2023-01-07T02:17:21.717Z,0.02
2023-01-07T02:18:22.901Z,0.02
2023-01-07T02:19:22.193Z,0.00
2023-01-07T02:20:23.358Z,0.00
2023-01-07T02:21:21.619Z,0.00
2023-01-07T02:22:21.910Z,0.02
2023-01-07T02:23:22.101Z,0.02
2023-01-07T02:24:22.353Z,0.02
2023-01-07T02:25:21.560Z,0.00
2023-01-07T02:26:22.865Z,0.02
2023-01-07T02:27:22.072Z,0.02
2023-01-07T02:28:22.356Z,0.00
2023-01-07T02:29:21.555Z,0.02
2023-01-07T02:30:21.804Z,0.02
2023-01-07T02:31:22.154Z,0.02
2023-01-07T02:32:22.961Z,0.00
2023-01-07T02:33:22.135Z,0.02
2023-01-07T02:34:21.828Z,0.02
2023-01-07T02:35:22.108Z,0.02
2023-01-07T02:36:22.361Z,0.02
2023-01-07T02:37:21.583Z,0.00
2023-01-07T02:38:21.905Z,0.02
2023-01-07T02:39:22.151Z,0.07
2023-01-07T02:40:21.342Z,0.02
2023-01-07T02:41:21.631Z,0.01
2023-01-07T02:42:21.861Z,0.02
2023-01-07T02:43:22.124Z,0.02
2023-01-07T02:44:21.347Z,0.02
2023-01-07T02:45:21.600Z,0.00
2023-01-07T02:46:21.856Z,0.00
2023-01-07T02:47:23.173Z,0.02
2023-01-07T02:48:22.249Z,0.01
2023-01-07T02:49:21.624Z,0.02
2023-01-07T02:50:22.797Z,0.02
2023-01-07T02:51:23.034Z,0.02
2023-01-07T02:52:21.294Z,0.02
2023-01-07T02:53:21.554Z,0.02
2023-01-07T02:54:21.850Z,0.02
2023-01-07T02:55:22.061Z,0.00
2023-01-07T02:56:21.264Z,0.00
2023-01-07T02:57:22.485Z,0.00
2023-01-07T02:58:22.729Z,0.02
2023-01-07T02:59:22.036Z,0.02
2023-01-07T03:00:21.305Z,0.02
2023-01-07T03:01:22.629Z,0.02
2023-01-07T03:02:21.724Z,0.01
2023-01-07T03:03:22.043Z,0.02
2023-01-07T03:04:21.263Z,0.02
2023-01-07T03:05:21.648Z,0.02
2023-01-07T03:06:21.704Z,0.02
2023-01-07T03:07:21.927Z,0.02
2023-01-07T03:08:21.113Z,0.02
2023-01-07T03:09:22.334Z,0.02
2023-01-07T03:10:21.628Z,0.07
2023-01-07T03:11:21.891Z,0.02
2023-01-07T03:12:21.061Z,0.02
2023-01-07T03:13:21.314Z,0.05
2023-01-07T03:14:21.541Z,0.02
2023-01-07T03:15:21.769Z,0.02
2023-01-07T03:16:21.890Z,0.02
2023-01-07T03:17:21.253Z,0.02
2023-01-07T03:18:21.507Z,0.02
2023-01-07T03:19:21.791Z,0.00
2023-01-07T03:20:21.011Z,0.02
2023-01-07T03:21:21.302Z,0.02
2023-01-07T03:22:21.521Z,0.00
2023-01-07T03:23:22.730Z,0.02
2023-01-07T03:24:20.974Z,0.07
2023-01-07T03:25:21.248Z,0.02
2023-01-07T03:26:21.557Z,0.02
2023-01-07T03:27:21.706Z,0.00
2023-01-07T03:28:20.999Z,0.02
2023-01-07T03:29:21.252Z,0.02
2023-01-07T03:30:21.532Z,0.00
2023-01-07T03:31:21.828Z,0.02
2023-01-07T03:32:20.979Z,0.02
2023-01-07T03:33:22.174Z,0.05
2023-01-07T03:34:22.436Z,0.02
2023-01-07T03:35:22.660Z,0.02
2023-01-07T03:36:21.840Z,0.02
2023-01-07T03:37:21.596Z,0.01
2023-01-07T03:38:22.336Z,0.02
2023-01-07T03:39:21.547Z,0.02
2023-01-07T03:40:20.819Z,0.02
2023-01-07T03:41:22.013Z,0.02
2023-01-07T03:42:22.232Z,0.02
2023-01-07T03:43:20.530Z,0.02
2023-01-07T03:44:20.741Z,0.00
2023-01-07T03:45:20.989Z,0.02
2023-01-07T03:46:21.235Z,0.02
2023-01-07T03:47:21.456Z,0.02
2023-01-07T03:48:20.658Z,0.02
2023-01-07T03:49:20.896Z,0.02
2023-01-07T03:50:21.165Z,0.00
2023-01-07T03:51:21.390Z,0.00
2023-01-07T03:52:20.599Z,0.00
2023-01-07T03:53:20.839Z,0.01
2023-01-07T03:54:21.121Z,0.00
2023-01-07T03:55:22.287Z,0.01
2023-01-07T03:56:21.520Z,0.02
2023-01-07T03:57:21.726Z,0.00
2023-01-07T03:58:21.977Z,0.02
2023-01-07T03:59:21.296Z,0.02
2023-01-07T04:00:20.518Z,0.02
2023-01-07T04:01:20.885Z,0.02
2023-01-07T04:02:20.952Z,0.02
2023-01-07T04:03:21.220Z,0.07
2023-01-07T04:04:20.463Z,0.02
2023-01-07T04:05:20.821Z,0.00
2023-01-07T04:06:21.852Z,0.02
2023-01-07T04:07:22.106Z,0.00
2023-01-07T04:08:21.313Z,0.02
2023-01-07T04:09:20.613Z,0.02
2023-01-07T04:10:20.902Z,0.07
2023-01-07T04:11:21.143Z,0.00
2023-01-07T04:12:20.347Z,0.02
2023-01-07T04:13:20.608Z,0.02
2023-01-07T04:14:21.831Z,0.00
2023-01-07T04:15:20.129Z,0.02
2023-01-07T04:16:20.430Z,0.02
2023-01-07T04:17:20.842Z,0.02
2023-01-07T04:18:20.887Z,0.00
2023-01-07T04:19:20.081Z,0.00
2023-01-07T04:20:20.347Z,0.02
2023-01-07T04:21:20.617Z,0.02
2023-01-07T04:22:20.872Z,0.02
2023-01-07T04:23:20.082Z,0.02
2023-01-07T04:24:20.362Z,0.02
2023-01-07T04:25:20.635Z,0.02
2023-01-07T04:26:20.931Z,0.02
2023-01-07T04:27:20.142Z,0.02
2023-01-07T04:28:21.358Z,0.02
2023-01-07T04:29:21.072Z,0.00
2023-01-07T04:30:19.907Z,0.02
2023-01-07T04:31:20.176Z,0.02
2023-01-07T04:32:20.468Z,0.02
2023-01-07T04:33:20.713Z,0.02
2023-01-07T04:34:19.949Z,0.02
2023-01-07T04:35:20.204Z,0.06
2023-01-07T04:36:20.478Z,0.01
2023-01-07T04:37:20.757Z,0.00
2023-01-07T04:38:19.981Z,0.06
2023-01-07T04:39:20.216Z,0.02
2023-01-07T04:40:21.429Z,0.00
2023-01-07T04:41:21.750Z,0.02
2023-01-07T04:42:19.958Z,0.00
2023-01-07T04:43:20.513Z,0.02
2023-01-07T04:44:20.432Z,0.02
2023-01-07T04:45:20.686Z,0.00
2023-01-07T04:46:19.967Z,0.02
2023-01-07T04:47:20.111Z,0.02
2023-01-07T04:48:20.405Z,0.02
2023-01-07T04:49:19.986Z,0.00
2023-01-07T04:50:19.865Z,0.02
2023-01-07T04:51:20.116Z,0.02
2023-01-07T04:52:20.362Z,0.02
2023-01-07T04:53:19.562Z,0.00
2023-01-07T04:54:20.777Z,0.00
2023-01-07T04:55:20.120Z,0.00
2023-01-07T04:56:20.299Z,0.02
2023-01-07T04:57:20.527Z,0.00
2023-01-07T04:58:19.671Z,0.02
2023-01-07T04:59:19.936Z,0.00
2023-01-07T05:00:20.126Z,0.02
2023-01-07T05:01:20.614Z,0.02
2023-01-07T05:02:19.558Z,0.02
2023-01-07T05:03:20.719Z,0.02
2023-01-07T05:04:19.985Z,0.00
2023-01-07T05:05:20.232Z,0.00
2023-01-07T05:06:19.419Z,0.02
2023-01-07T05:07:19.777Z,0.00
2023-01-07T05:08:19.936Z,0.00
2023-01-07T05:09:21.153Z,0.02
2023-01-07T05:10:23.310Z,0.02
2023-01-07T05:11:19.646Z,0.02
2023-01-07T05:12:19.907Z,0.02
2023-01-07T05:13:20.397Z,0.00
2023-01-07T05:14:19.357Z,0.02
2023-01-07T05:15:19.622Z,0.02
2023-01-07T05:16:20.045Z,0.05
2023-01-07T05:17:20.126Z,0.02
2023-01-07T05:18:19.331Z,0.02
2023-01-07T05:19:19.563Z,0.00
2023-01-07T05:20:19.826Z,0.02
2023-01-07T05:21:21.022Z,0.02
2023-01-07T05:22:20.296Z,0.02
2023-01-07T05:23:19.741Z,0.02
2023-01-07T05:24:19.765Z,0.00
2023-01-07T05:25:20.035Z,0.02
2023-01-07T05:26:19.242Z,0.00
2023-01-07T05:27:19.493Z,0.00
2023-01-07T05:28:19.716Z,0.05
2023-01-07T05:29:20.043Z,0.00
2023-01-07T05:30:20.227Z,0.02
2023-01-07T05:31:19.536Z,0.01
2023-01-07T05:32:19.706Z,0.00
2023-01-07T05:33:19.947Z,0.00
2023-01-07T05:34:19.254Z,0.02
2023-01-07T05:35:19.444Z,0.02
2023-01-07T05:36:19.824Z,0.02
2023-01-07T05:37:19.961Z,0.02
2023-01-07T05:38:19.162Z,0.00
2023-01-07T05:39:21.492Z,0.00
2023-01-07T05:40:19.669Z,0.02
2023-01-07T05:41:19.906Z,0.02
2023-01-07T05:42:19.081Z,0.02
2023-01-07T05:43:20.282Z,0.00
2023-01-07T05:44:20.526Z,0.00
2023-01-07T05:45:20.789Z,0.02
2023-01-07T05:46:19.299Z,0.00
2023-01-07T05:47:19.274Z,0.00
2023-01-07T05:48:19.518Z,0.02
2023-01-07T05:49:19.770Z,0.00
2023-01-07T05:50:20.038Z,0.02
2023-01-07T05:51:19.288Z,0.01
2023-01-07T05:52:19.509Z,0.00
2023-01-07T05:53:19.715Z,0.00
2023-01-07T05:54:18.906Z,0.05
2023-01-07T05:55:19.150Z,0.02
2023-01-07T05:56:19.382Z,0.02
2023-01-07T05:57:19.583Z,0.00
2023-01-07T05:58:19.742Z,0.00
2023-01-07T05:59:19.974Z,0.02
2023-01-07T06:00:19.291Z,0.02
2023-01-07T06:01:19.606Z,0.02
2023-01-07T06:02:18.738Z,0.06
2023-01-07T06:03:19.959Z,0.02
2023-01-07T06:04:19.271Z,0.02
2023-01-07T06:05:19.474Z,0.00
2023-01-07T06:06:18.699Z,0.00
2023-01-07T06:07:19.018Z,0.00
2023-01-07T06:08:19.206Z,0.00
2023-01-07T06:09:19.472Z,0.02
2023-01-07T06:10:18.648Z,0.02
2023-01-07T06:11:19.945Z,0.01
2023-01-07T06:12:19.167Z,0.02
2023-01-07T06:13:19.503Z,0.00
2023-01-07T06:14:18.656Z,0.02
2023-01-07T06:15:18.949Z,0.00
2023-01-07T06:16:19.227Z,0.00
2023-01-07T06:17:19.625Z,0.00
2023-01-07T06:18:18.832Z,0.00
2023-01-07T06:19:18.992Z,0.02
2023-01-07T06:20:19.238Z,0.02
2023-01-07T06:21:19.453Z,0.02
2023-01-07T06:22:19.673Z,0.00
2023-01-07T06:23:19.141Z,0.00
2023-01-07T06:24:19.222Z,0.01
2023-01-07T06:25:18.418Z,0.00
2023-01-07T06:26:18.672Z,0.02
2023-01-07T06:27:18.924Z,0.00
2023-01-07T06:28:19.171Z,0.02
2023-01-07T06:29:19.442Z,0.00
2023-01-07T06:30:18.633Z,0.00
2023-01-07T06:31:18.906Z,0.02
2023-01-07T06:32:19.133Z,0.02
2023-01-07T06:33:18.311Z,0.00
2023-01-07T06:34:18.629Z,0.00
2023-01-07T06:35:18.828Z,0.02
2023-01-07T06:36:19.187Z,0.00
2023-01-07T06:37:18.301Z,0.02
2023-01-07T06:38:19.492Z,0.02
2023-01-07T06:39:18.816Z,0.02
2023-01-07T06:40:19.063Z,0.01
2023-01-07T06:41:19.225Z,0.01
2023-01-07T06:42:18.534Z,0.00
2023-01-07T06:43:19.740Z,0.01
2023-01-07T06:44:19.043Z,0.01
2023-01-07T06:45:18.278Z,0.01
2023-01-07T06:46:18.512Z,0.05
2023-01-07T06:47:18.731Z,0.01
2023-01-07T06:48:19.011Z,0.01
2023-01-07T06:49:18.239Z,0.03
2023-01-07T06:50:18.587Z,0.02
2023-01-07T06:51:18.665Z,0.02
2023-01-07T06:52:18.905Z,0.02
2023-01-07T06:53:18.101Z,0.03
2023-01-07T06:54:18.364Z,0.03
2023-01-07T06:55:18.734Z,0.03
2023-01-07T06:56:19.403Z,0.04
2023-01-07T06:57:18.068Z,0.13
2023-01-07T06:58:18.311Z,0.05
2023-01-07T06:59:18.562Z,0.09
2023-01-07T07:00:18.792Z,0.18
2023-01-07T07:01:18.302Z,0.08
2023-01-07T07:02:18.310Z,0.10
2023-01-07T07:03:18.550Z,0.12
2023-01-07T07:04:18.767Z,0.14
2023-01-07T07:05:17.921Z,0.16
2023-01-07T07:06:18.167Z,0.20
2023-01-07T07:07:18.956Z,0.23
2023-01-07T07:08:18.656Z,0.28
2023-01-07T07:09:17.882Z,0.33
2023-01-07T07:10:18.115Z,0.41
2023-01-07T07:11:18.468Z,0.49
2023-01-07T07:12:18.614Z,0.60
2023-01-07T07:13:18.312Z,0.76
2023-01-07T07:14:18.107Z,1.00
2023-01-07T07:15:18.367Z,1.32
2023-01-07T07:16:18.692Z,1.57
2023-01-07T07:17:17.821Z,1.79
2023-01-07T07:18:18.085Z,1.98
2023-01-07T07:19:18.330Z,2.18
2023-01-07T07:20:18.522Z,2.40
2023-01-07T07:21:17.738Z,2.65
2023-01-07T07:22:17.971Z,2.88
2023-01-07T07:23:18.213Z,3.06
2023-01-07T07:24:18.601Z,3.15
2023-01-07T07:25:18.635Z,3.22
2023-01-07T07:26:18.842Z,3.36
2023-01-07T07:27:19.071Z,3.51
2023-01-07T07:28:19.348Z,3.70
2023-01-07T07:29:17.579Z,4.32
2023-01-07T07:30:18.154Z,4.99
2023-01-07T07:31:18.060Z,5.37
2023-01-07T07:32:18.270Z,6.10
2023-01-07T07:33:17.456Z,6.51
2023-01-07T07:34:17.726Z,7.02
2023-01-07T07:35:17.916Z,7.78
2023-01-07T07:36:18.232Z,7.75
2023-01-07T07:37:18.642Z,8.92
2023-01-07T07:38:17.623Z,9.34
2023-01-07T07:39:17.811Z,9.24
2023-01-07T07:40:18.046Z,9.50
2023-01-07T07:41:18.313Z,9.92
2023-01-07T07:42:17.926Z,10.46
2023-01-07T07:43:17.696Z,11.32
2023-01-07T07:44:17.884Z,11.77
2023-01-07T07:45:19.053Z,12.21
2023-01-07T07:46:17.311Z,12.67
2023-01-07T07:47:17.577Z,13.33
2023-01-07T07:48:17.785Z,13.96
2023-01-07T07:49:17.988Z,14.84
2023-01-07T07:50:18.208Z,16.32
2023-01-07T07:51:17.412Z,18.22
2023-01-07T07:52:17.659Z,19.64
2023-01-07T07:53:17.926Z,20.49
2023-01-07T07:54:18.181Z,20.33
2023-01-07T07:55:20.039Z,20.21
2023-01-07T07:56:18.579Z,21.54
2023-01-07T07:57:18.732Z,22.44
2023-01-07T07:58:18.073Z,23.27
2023-01-07T07:59:17.176Z,25.31
2023-01-07T08:00:18.364Z,26.43
2023-01-07T08:01:18.643Z,26.72
2023-01-07T08:02:18.893Z,27.11
2023-01-07T08:03:18.073Z,28.66
2023-01-07T08:04:17.377Z,30.54
2023-01-07T08:05:17.551Z,32.07
2023-01-07T08:06:17.769Z,33.54
2023-01-07T08:07:32.160Z,36.88
2023-01-07T08:08:18.276Z,41.22
2023-01-07T08:09:17.490Z,44.02
2023-01-07T08:10:17.759Z,45.30
2023-01-07T08:11:17.876Z,46.93
2023-01-07T08:12:17.155Z,48.88
2023-01-07T08:13:17.415Z,50.85
2023-01-07T08:14:18.616Z,52.44
2023-01-07T08:15:16.926Z,51.59
2023-01-07T08:16:17.164Z,49.37
2023-01-07T08:17:17.375Z,49.13
2023-01-07T08:18:18.631Z,49.55
2023-01-07T08:19:17.905Z,48.84
2023-01-07T08:20:17.117Z,50.01
2023-01-07T08:21:17.348Z,51.09
2023-01-07T08:22:17.616Z,51.60
2023-01-07T08:23:16.802Z,52.55
2023-01-07T08:24:17.064Z,54.43
2023-01-07T08:25:17.295Z,56.06
2023-01-07T08:26:17.503Z,56.66
2023-01-07T08:27:17.736Z,56.23
2023-01-07T08:28:17.881Z,56.43
2023-01-07T08:29:17.135Z,57.51
2023-01-07T08:30:17.505Z,58.55
2023-01-07T08:31:18.574Z,59.85
2023-01-07T08:32:16.828Z,60.71
2023-01-07T08:33:17.964Z,61.70
2023-01-07T08:34:17.246Z,64.41
2023-01-07T08:35:18.415Z,68.46
2023-01-07T08:36:23.125Z,71.97
2023-01-07T08:37:17.908Z,74.10
2023-01-07T08:38:17.155Z,73.96
2023-01-07T08:39:17.394Z,76.00
2023-01-07T08:40:16.599Z,78.45
2023-01-07T08:41:17.808Z,80.15
2023-01-07T08:42:17.215Z,80.02
2023-01-07T08:43:17.297Z,78.49
2023-01-07T08:44:17.446Z,77.93
2023-01-07T08:45:18.650Z,79.41
2023-01-07T08:46:17.912Z,80.98
2023-01-07T08:47:18.126Z,80.03
2023-01-07T08:48:17.790Z,79.16
2023-01-07T08:49:16.610Z,81.09
2023-01-07T08:50:16.845Z,82.67
2023-01-07T08:51:18.045Z,83.43
2023-01-07T08:52:17.308Z,84.74
2023-01-07T08:53:17.475Z,86.92
2023-01-07T08:54:16.954Z,88.73
2023-01-07T08:55:16.915Z,96.89
2023-01-07T08:56:17.342Z,98.07
2023-01-07T08:57:17.328Z,100.90
2023-01-07T08:58:16.484Z,102.59
2023-01-07T08:59:16.729Z,105.16
2023-01-07T09:00:17.128Z,106.79
2023-01-07T09:01:17.229Z,107.98
2023-01-07T09:02:17.566Z,109.20
2023-01-07T09:03:17.504Z,111.91
2023-01-07T09:04:17.735Z,112.37
2023-01-07T09:05:16.991Z,111.89
2023-01-07T09:06:17.260Z,113.20
2023-01-07T09:07:16.396Z,116.85
2023-01-07T09:08:16.618Z,120.57
2023-01-07T09:09:17.804Z,121.76
2023-01-07T09:10:18.001Z,122.96
2023-01-07T09:11:17.195Z,124.14
2023-01-07T09:12:16.521Z,125.86
2023-01-07T09:13:17.650Z,129.28
2023-01-07T09:14:17.948Z,135.36
2023-01-07T09:15:17.161Z,140.53
2023-01-07T09:16:17.427Z,144.53
2023-01-07T09:17:16.700Z,147.37
2023-01-07T09:18:16.951Z,153.64
2023-01-07T09:19:16.135Z,162.25
2023-01-07T09:20:16.350Z,166.90
2023-01-07T09:21:17.538Z,175.21
2023-01-07T09:22:17.782Z,185.34
2023-01-07T09:23:16.087Z,196.87
2023-01-07T09:24:16.250Z,206.02
2023-01-07T09:25:17.400Z,209.59
2023-01-07T09:26:16.706Z,230.93
2023-01-07T09:27:16.908Z,263.67
2023-01-07T09:28:16.137Z,301.29
2023-01-07T09:29:16.466Z,337.08
2023-01-07T09:30:17.523Z,385.73
2023-01-07T09:31:17.861Z,437.18
2023-01-07T09:32:16.981Z,477.35
2023-01-07T09:33:16.295Z,508.55
2023-01-07T09:34:16.628Z,534.86
2023-01-07T09:35:17.763Z,564.24
2023-01-07T09:36:16.987Z,581.42
2023-01-07T09:37:16.263Z,588.18
2023-01-07T09:38:16.974Z,600.43
2023-01-07T09:39:17.708Z,667.46
2023-01-07T09:40:15.952Z,615.48
2023-01-07T09:41:17.117Z,614.98
2023-01-07T09:42:17.362Z,617.09
2023-01-07T09:43:17.635Z,691.20
2023-01-07T09:44:15.881Z,616.56
2023-01-07T09:45:17.069Z,682.76
2023-01-07T09:46:17.324Z,665.60
2023-01-07T09:47:16.577Z,648.83
2023-01-07T09:48:16.725Z,637.72
2023-01-07T09:49:16.061Z,596.88
2023-01-07T09:50:16.306Z,603.92
2023-01-07T09:51:16.496Z,529.34
2023-01-07T09:52:15.693Z,494.86
2023-01-07T09:53:16.887Z,462.03
2023-01-07T09:54:17.105Z,405.11
2023-01-07T09:55:16.891Z,357.11
2023-01-07T09:56:16.637Z,404.64
2023-01-07T09:57:15.847Z,352.42
2023-01-07T09:58:17.001Z,294.59
2023-01-07T09:59:17.243Z,313.75
2023-01-07T10:00:16.461Z,296.25
2023-01-07T10:01:16.774Z,299.21
2023-01-07T10:02:16.979Z,313.74
2023-01-07T10:03:17.191Z,329.67
2023-01-07T10:04:16.470Z,334.04
2023-01-07T10:05:16.668Z,342.06
2023-01-07T10:06:16.469Z,401.56
2023-01-07T10:07:15.787Z,418.68
2023-01-07T10:08:31.663Z,410.28
2023-01-07T10:09:17.213Z,408.06
2023-01-07T10:10:15.399Z,401.71
2023-01-07T10:11:15.648Z,566.65
2023-01-07T10:12:15.925Z,545.11
2023-01-07T10:13:16.145Z,631.65
2023-01-07T10:14:15.356Z,494.17
2023-01-07T10:15:15.631Z,423.25
2023-01-07T10:16:15.910Z,398.35
2023-01-07T10:17:17.336Z,427.81
2023-01-07T10:18:16.374Z,426.64
2023-01-07T10:19:15.904Z,389.72
2023-01-07T10:20:16.780Z,374.43
2023-01-07T10:21:16.063Z,415.84
2023-01-07T10:22:15.297Z,472.95
2023-01-07T10:23:15.559Z,466.35
2023-01-07T10:24:15.829Z,477.94
2023-01-07T10:25:17.027Z,545.93
2023-01-07T10:26:17.347Z,449.69
2023-01-07T10:27:16.485Z,586.14
2023-01-07T10:28:16.724Z,544.66
2023-01-07T10:29:16.046Z,469.58
2023-01-07T10:30:16.191Z,580.95
2023-01-07T10:31:16.491Z,589.35
2023-01-07T10:32:16.695Z,575.74
2023-01-07T10:33:16.921Z,571.44
2023-01-07T10:34:15.159Z,461.40
2023-01-07T10:35:16.435Z,507.12
2023-01-07T10:36:16.641Z,444.86
2023-01-07T10:37:16.882Z,443.02
2023-01-07T10:38:16.085Z,324.41
2023-01-07T10:39:16.317Z,242.79
2023-01-07T10:40:16.557Z,254.13
2023-01-07T10:41:16.805Z,267.25
2023-01-07T10:42:16.030Z,320.20
2023-01-07T10:43:15.324Z,283.31
2023-01-07T10:44:16.502Z,272.18
2023-01-07T10:45:16.757Z,269.56
2023-01-07T10:46:16.173Z,366.52
2023-01-07T10:47:16.226Z,500.69
2023-01-07T10:48:16.506Z,526.90
2023-01-07T10:49:15.777Z,421.92
2023-01-07T10:50:14.983Z,533.07
2023-01-07T10:51:16.278Z,521.87
2023-01-07T10:52:15.436Z,244.30
2023-01-07T10:53:19.142Z,236.88
2023-01-07T10:54:15.863Z,265.54
2023-01-07T10:55:15.841Z,374.06
2023-01-07T10:56:16.102Z,252.09
2023-01-07T10:57:16.287Z,239.83
2023-01-07T10:58:15.560Z,229.78
2023-01-07T10:59:19.861Z,217.10
2023-01-07T11:00:15.946Z,220.51
2023-01-07T11:01:15.328Z,214.01
2023-01-07T11:02:15.787Z,191.24
2023-01-07T11:03:15.615Z,183.46
2023-01-07T11:04:17.030Z,186.99
2023-01-07T11:05:16.271Z,192.77
2023-01-07T11:06:16.370Z,181.90
2023-01-07T11:07:15.543Z,170.36
2023-01-07T11:08:15.940Z,165.29
2023-01-07T11:09:15.067Z,173.37
2023-01-07T11:10:16.231Z,186.10
2023-01-07T11:11:16.412Z,170.01
2023-01-07T11:12:16.620Z,159.27
2023-01-07T11:13:15.819Z,151.20
2023-01-07T11:14:16.084Z,142.45
2023-01-07T11:15:16.232Z,132.98
2023-01-07T11:16:15.465Z,129.02
2023-01-07T11:17:15.650Z,130.79
2023-01-07T11:18:15.886Z,135.09
2023-01-07T11:19:16.540Z,140.78
2023-01-07T11:20:15.381Z,144.69
2023-01-07T11:21:42.685Z,136.58
2023-01-07T11:22:16.771Z,128.54
2023-01-07T11:23:15.995Z,127.53
2023-01-07T11:24:16.261Z,126.67
2023-01-07T11:25:15.501Z,128.12
2023-01-07T11:26:15.678Z,123.91
2023-01-07T11:27:14.956Z,124.26
2023-01-07T11:28:16.085Z,134.20
2023-01-07T11:29:15.279Z,143.23
2023-01-07T11:30:15.586Z,146.23
2023-01-07T11:31:14.770Z,151.01
2023-01-07T11:32:15.972Z,163.41
2023-01-07T11:33:16.170Z,177.43
2023-01-07T11:34:14.411Z,184.73
2023-01-07T11:35:15.581Z,188.47
2023-01-07T11:36:15.800Z,202.03
2023-01-07T11:37:16.041Z,208.72
2023-01-07T11:38:15.196Z,197.76
2023-01-07T11:39:14.456Z,189.71
2023-01-07T11:40:15.596Z,186.97
2023-01-07T11:41:16.211Z,178.85
2023-01-07T11:42:14.109Z,173.12
2023-01-07T11:43:14.337Z,164.76
2023-01-07T11:44:14.562Z,159.62
2023-01-07T11:45:14.769Z,160.93
2023-01-07T11:46:22.356Z,161.80
2023-01-07T11:47:14.221Z,160.47
2023-01-07T11:48:14.431Z,153.75
2023-01-07T11:49:14.617Z,148.41
2023-01-07T11:50:15.130Z,145.76
2023-01-07T11:51:14.075Z,140.77
2023-01-07T11:52:14.406Z,137.39
2023-01-07T11:53:14.543Z,136.67
2023-01-07T11:54:14.732Z,135.96
2023-01-07T11:55:14.587Z,140.56
2023-01-07T11:56:15.127Z,142.18
2023-01-07T11:57:15.711Z,138.25
2023-01-07T11:58:28.809Z,137.09
2023-01-07T11:59:15.836Z,143.04
2023-01-07T12:00:14.055Z,149.00
2023-01-07T12:01:15.315Z,150.12
2023-01-07T12:02:16.448Z,149.69
2023-01-07T12:03:15.744Z,162.57
2023-01-07T12:04:14.847Z,168.21
2023-01-07T12:05:14.123Z,164.61
2023-01-07T12:06:14.416Z,157.05
2023-01-07T12:07:14.557Z,147.28
2023-01-07T12:08:14.799Z,144.08
2023-01-07T12:09:13.985Z,140.09
2023-01-07T12:10:14.187Z,137.19
2023-01-07T12:11:14.495Z,137.86
2023-01-07T12:12:14.626Z,141.18
2023-01-07T12:13:13.832Z,141.61
2023-01-07T12:14:14.100Z,140.48
2023-01-07T12:15:14.305Z,141.67
2023-01-07T12:16:15.507Z,141.67
2023-01-07T12:17:15.724Z,141.96
2023-01-07T12:18:13.951Z,142.78
2023-01-07T12:19:18.364Z,138.62
2023-01-07T12:20:14.436Z,134.79
2023-01-07T12:21:14.564Z,137.51
2023-01-07T12:22:13.845Z,140.09
2023-01-07T12:23:15.068Z,138.82
2023-01-07T12:24:15.249Z,137.02
2023-01-07T12:25:15.814Z,138.54
2023-01-07T12:26:14.675Z,136.67
2023-01-07T12:27:14.885Z,133.29
2023-01-07T12:28:15.099Z,132.83
2023-01-07T12:29:15.363Z,140.00
2023-01-07T12:30:13.641Z,139.79
2023-01-07T12:31:14.826Z,138.30
2023-01-07T12:32:14.027Z,138.61
2023-01-07T12:33:14.250Z,139.75
2023-01-07T12:34:13.524Z,136.72
2023-01-07T12:35:14.713Z,131.50
2023-01-07T12:36:15.825Z,128.20
2023-01-07T12:37:15.085Z,129.49
2023-01-07T12:38:14.341Z,127.99
2023-01-07T12:39:13.553Z,122.34
2023-01-07T12:40:15.221Z,119.09
2023-01-07T12:41:13.963Z,120.65
2023-01-07T12:42:16.627Z,121.35
2023-01-07T12:43:15.360Z,116.71
2023-01-07T12:44:13.612Z,115.52
2023-01-07T12:45:14.758Z,109.32
2023-01-07T12:46:16.074Z,105.11
2023-01-07T12:47:32.107Z,102.46
2023-01-07T12:48:14.439Z,101.22
2023-01-07T12:49:14.642Z,101.59
2023-01-07T12:50:14.798Z,103.22
2023-01-07T12:51:15.024Z,103.45
2023-01-07T12:52:14.204Z,104.67
2023-01-07T12:53:13.511Z,109.29
2023-01-07T12:54:14.693Z,111.72
2023-01-07T12:55:14.920Z,111.43
2023-01-07T12:56:14.113Z,109.39
2023-01-07T12:57:13.325Z,107.09
2023-01-07T12:58:13.485Z,106.64
2023-01-07T12:59:46.936Z,108.17
2023-01-07T13:00:14.920Z,107.98